createdAt,value
2023-01-29T00:00:15.048Z,44
2023-01-29T00:05:51.949Z,42
2023-01-29T00:10:20.183Z,44
2023-01-29T00:15:20.191Z,43
2023-01-29T00:20:30.034Z,44
2023-01-29T00:25:17.768Z,44
2023-01-29T00:30:19.542Z,42
2023-01-29T00:35:14.066Z,44
2023-01-29T00:40:14.015Z,42
2023-01-29T00:45:22.009Z,43
2023-01-29T00:50:21.946Z,42
2023-01-29T00:55:17.992Z,42
2023-01-29T01:00:15.801Z,43
2023-01-29T01:05:18.460Z,42
2023-01-29T01:10:20.385Z,42
2023-01-29T01:15:16.431Z,43
2023-01-29T01:20:22.395Z,42
2023-01-29T01:25:22.241Z,43
2023-01-29T01:30:15.208Z,43
2023-01-29T01:35:18.493Z,42
2023-01-29T01:40:16.944Z,42
2023-01-29T01:45:22.298Z,43
2023-01-29T01:50:18.592Z,43
2023-01-29T01:55:21.760Z,43
2023-01-29T02:00:18.923Z,43
2023-01-29T02:05:15.729Z,43
2023-01-29T02:10:19.012Z,42
2023-01-29T02:15:15.917Z,43
2023-01-29T02:20:16.429Z,43
2023-01-29T02:25:21.766Z,43
2023-01-29T02:30:17.250Z,43
2023-01-29T02:35:13.538Z,42
2023-01-29T02:40:20.324Z,43
2023-01-29T02:45:18.190Z,43
2023-01-29T02:50:16.638Z,41
2023-01-29T02:55:20.019Z,41
2023-01-29T03:00:18.584Z,43
2023-01-29T03:05:17.800Z,43
2023-01-29T03:10:16.297Z,43
2023-01-29T03:15:22.628Z,43
2023-01-29T03:20:15.838Z,43
2023-01-29T03:25:18.191Z,41
2023-01-29T03:30:16.856Z,42
2023-01-29T03:35:16.198Z,42
2023-01-29T03:40:16.760Z,43
2023-01-29T03:45:18.252Z,41
2023-01-29T03:50:18.701Z,42
2023-01-29T03:55:15.728Z,42
2023-01-29T04:00:20.655Z,42
2023-01-29T04:05:28.444Z,41
2023-01-29T04:10:20.266Z,42
2023-01-29T04:15:16.143Z,42
2023-01-29T04:20:16.957Z,42
2023-01-29T04:25:24.320Z,41
2023-01-29T04:30:20.138Z,42
2023-01-29T04:35:17.943Z,41
2023-01-29T04:40:16.763Z,41
2023-01-29T04:45:18.124Z,42
2023-01-29T04:50:16.784Z,42
2023-01-29T04:55:16.413Z,42
2023-01-29T05:00:16.029Z,42
2023-01-29T05:05:30.303Z,41
2023-01-29T05:10:18.835Z,41
2023-01-29T05:15:16.395Z,42
2023-01-29T05:20:16.927Z,41
2023-01-29T05:25:16.304Z,42
2023-01-29T05:30:14.872Z,42
2023-01-29T05:35:16.339Z,41
2023-01-29T05:40:17.196Z,42
2023-01-29T05:45:16.833Z,42
2023-01-29T05:50:14.113Z,42
2023-01-29T05:55:16.326Z,42
2023-01-29T06:00:16.846Z,42
2023-01-29T06:05:17.781Z,42
2023-01-29T06:10:22.540Z,42
2023-01-29T06:15:16.402Z,42
2023-01-29T06:20:17.049Z,42
2023-01-29T06:25:23.781Z,42
2023-01-29T06:30:19.345Z,42
2023-01-29T06:35:14.494Z,42
2023-01-29T06:40:17.228Z,42
2023-01-29T06:45:20.508Z,42
2023-01-29T06:50:18.994Z,42
2023-01-29T06:55:18.419Z,40
2023-01-29T07:00:14.818Z,40
2023-01-29T07:05:13.926Z,42
2023-01-29T07:10:18.936Z,40
2023-01-29T07:15:20.342Z,42
2023-01-29T07:20:18.838Z,41
2023-01-29T07:25:17.811Z,42
2023-01-29T07:30:15.169Z,41
2023-01-29T07:35:18.400Z,42
2023-01-29T07:40:18.741Z,42
2023-01-29T07:45:19.945Z,41
2023-01-29T07:50:21.879Z,40
2023-01-29T07:55:23.611Z,41
2023-01-29T08:00:17.096Z,41
2023-01-29T08:05:16.348Z,41
2023-01-29T08:10:14.874Z,41
2023-01-29T08:15:18.304Z,41
2023-01-29T08:20:18.996Z,40
2023-01-29T08:25:27.380Z,42
2023-01-29T08:30:13.764Z,42
2023-01-29T08:35:19.116Z,42
2023-01-29T08:40:16.842Z,41
2023-01-29T08:45:16.322Z,42
2023-01-29T08:50:19.594Z,42
2023-01-29T08:55:19.870Z,41
2023-01-29T09:00:16.232Z,42
2023-01-29T09:05:16.746Z,42
2023-01-29T09:10:17.907Z,43
2023-01-29T09:15:13.751Z,42
2023-01-29T09:20:25.909Z,43
2023-01-29T09:25:22.014Z,42
2023-01-29T09:30:14.188Z,42
2023-01-29T09:35:24.000Z,44
2023-01-29T09:40:15.860Z,43
2023-01-29T09:45:13.934Z,43
2023-01-29T09:50:22.354Z,42
2023-01-29T09:55:22.198Z,42
2023-01-29T10:00:16.133Z,43
2023-01-29T10:05:22.671Z,42
2023-01-29T10:10:16.564Z,43
2023-01-29T10:15:14.901Z,44
2023-01-29T10:20:16.183Z,46
2023-01-29T10:25:19.186Z,46
2023-01-29T10:30:17.794Z,46
2023-01-29T10:35:15.513Z,45
2023-01-29T10:40:18.079Z,44
2023-01-29T10:45:13.956Z,44
2023-01-29T10:50:15.927Z,45
2023-01-29T10:55:16.331Z,43
2023-01-29T11:00:27.544Z,43
2023-01-29T11:05:16.440Z,43
2023-01-29T11:10:14.512Z,44
2023-01-29T11:15:21.272Z,44
2023-01-29T11:20:19.451Z,44
2023-01-29T11:25:24.285Z,44
2023-01-29T11:30:16.727Z,45
2023-01-29T11:35:17.919Z,45
2023-01-29T11:40:16.542Z,45
2023-01-29T11:45:15.843Z,45
2023-01-29T11:50:20.187Z,44
2023-01-29T11:55:16.175Z,45
2023-01-29T12:00:20.567Z,45
2023-01-29T12:05:13.928Z,45
2023-01-29T12:10:19.953Z,45
2023-01-29T12:15:18.080Z,45
2023-01-29T12:20:14.127Z,46
2023-01-29T12:25:18.154Z,45
2023-01-29T12:30:19.072Z,45
2023-01-29T12:35:14.322Z,45
2023-01-29T12:40:20.754Z,45
2023-01-29T12:45:16.857Z,45
2023-01-29T12:50:13.576Z,45
2023-01-29T12:55:22.472Z,45
2023-01-29T13:00:19.159Z,45
2023-01-29T13:05:24.596Z,45
2023-01-29T13:10:22.363Z,45
2023-01-29T13:15:24.576Z,45
2023-01-29T13:20:20.493Z,46
2023-01-29T13:25:22.395Z,46
2023-01-29T13:30:16.883Z,45
2023-01-29T13:35:18.943Z,46
2023-01-29T13:40:18.126Z,46
2023-01-29T13:45:18.450Z,46
2023-01-29T13:50:25.754Z,46
2023-01-29T13:55:19.170Z,47
2023-01-29T14:00:20.455Z,46
2023-01-29T14:05:14.459Z,46
2023-01-29T14:10:15.714Z,46
2023-01-29T14:15:16.410Z,46
2023-01-29T14:20:25.834Z,46
2023-01-29T14:25:22.680Z,45
2023-01-29T14:30:14.632Z,46
2023-01-29T14:35:16.998Z,46
2023-01-29T14:40:26.229Z,46
2023-01-29T14:45:14.250Z,46
2023-01-29T14:50:16.105Z,46
2023-01-29T14:55:16.944Z,46
2023-01-29T15:00:16.457Z,46
2023-01-29T15:05:16.486Z,46
2023-01-29T15:10:38.932Z,46
2023-01-29T15:15:18.617Z,47
2023-01-29T15:20:16.466Z,47
2023-01-29T15:25:17.038Z,47
2023-01-29T15:30:18.368Z,47
2023-01-29T15:35:22.364Z,47
2023-01-29T15:40:20.270Z,47
2023-01-29T15:45:20.089Z,47
2023-01-29T15:50:25.925Z,46
2023-01-29T15:55:16.597Z,47
2023-01-29T16:00:14.149Z,46
2023-01-29T16:05:13.963Z,47
2023-01-29T16:10:17.798Z,47
2023-01-29T16:15:15.787Z,47
2023-01-29T16:20:17.986Z,47
2023-01-29T16:25:16.497Z,47
2023-01-29T16:30:17.688Z,48
2023-01-29T16:35:22.358Z,47
2023-01-29T16:40:20.175Z,47
2023-01-29T16:45:20.203Z,47
2023-01-29T16:50:24.023Z,47
2023-01-29T16:55:18.680Z,47
2023-01-29T17:00:14.065Z,47
2023-01-29T17:05:18.892Z,47
2023-01-29T17:10:20.339Z,47
2023-01-29T17:15:14.301Z,47
2023-01-29T17:20:14.305Z,48
2023-01-29T17:25:22.029Z,49
2023-01-29T17:30:15.929Z,50
2023-01-29T17:35:20.705Z,50
2023-01-29T17:40:18.820Z,50
2023-01-29T17:45:21.906Z,50
2023-01-29T17:50:17.730Z,50
2023-01-29T17:55:15.383Z,50
2023-01-29T18:00:13.809Z,50
2023-01-29T18:05:19.097Z,50
2023-01-29T18:10:22.314Z,49
2023-01-29T18:15:21.023Z,49
2023-01-29T18:20:20.022Z,47
2023-01-29T18:25:18.321Z,48
2023-01-29T18:30:15.699Z,48
2023-01-29T18:35:20.844Z,48
2023-01-29T18:40:15.627Z,48
2023-01-29T18:45:16.271Z,47
2023-01-29T18:50:20.469Z,48
2023-01-29T18:55:17.049Z,48
2023-01-29T19:00:20.549Z,47
2023-01-29T19:05:22.047Z,48
2023-01-29T19:10:13.867Z,47
2023-01-29T19:15:16.512Z,47
2023-01-29T19:20:17.907Z,46
2023-01-29T19:25:17.140Z,47
2023-01-29T19:30:23.054Z,48
2023-01-29T19:35:25.959Z,47
2023-01-29T19:40:17.753Z,48
2023-01-29T19:45:50.075Z,48
2023-01-29T19:50:16.386Z,48
2023-01-29T19:55:17.001Z,48
2023-01-29T20:00:14.415Z,49
2023-01-29T20:05:19.303Z,48
2023-01-29T20:10:20.383Z,48
2023-01-29T20:15:14.550Z,48
2023-01-29T20:20:20.955Z,48
2023-01-29T20:25:16.547Z,49
2023-01-29T20:30:14.428Z,48
2023-01-29T20:35:16.407Z,48
2023-01-29T20:40:16.908Z,47
2023-01-29T20:45:14.343Z,48
2023-01-29T20:50:18.644Z,48
2023-01-29T20:55:14.081Z,47
2023-01-29T21:00:14.430Z,47
2023-01-29T21:05:18.343Z,49
2023-01-29T21:10:22.187Z,48
2023-01-29T21:15:18.201Z,48
2023-01-29T21:20:18.621Z,48
2023-01-29T21:25:15.717Z,48
2023-01-29T21:30:22.783Z,48
2023-01-29T21:35:13.712Z,48
2023-01-29T21:40:20.334Z,48
2023-01-29T21:45:28.536Z,48
2023-01-29T21:50:22.354Z,49
2023-01-29T21:55:20.281Z,48
2023-01-29T22:00:14.279Z,48
2023-01-29T22:05:39.765Z,48
2023-01-29T22:10:22.179Z,47
2023-01-29T22:15:16.093Z,47
2023-01-29T22:20:16.865Z,48
2023-01-29T22:25:22.067Z,47
2023-01-29T22:30:18.661Z,46
2023-01-29T22:35:22.259Z,47
2023-01-29T22:40:18.830Z,47
2023-01-29T22:45:20.401Z,47
2023-01-29T22:50:17.301Z,46
2023-01-29T22:55:14.731Z,47
2023-01-29T23:00:14.906Z,47
2023-01-29T23:05:19.831Z,47
2023-01-29T23:10:20.061Z,47
2023-01-29T23:15:22.114Z,48
2023-01-29T23:20:22.028Z,47
2023-01-29T23:25:17.901Z,46
2023-01-29T23:30:14.187Z,47
2023-01-29T23:35:14.382Z,46
2023-01-29T23:40:26.458Z,47
2023-01-29T23:45:22.373Z,47
2023-01-29T23:50:20.592Z,46
2023-01-29T23:55:20.569Z,47
